Time;durP1;ratioP1;P1;durP2;ratioP2;P2;SDS_P1;SDS_P2;PMS_P1;PMS_P2;Temp;Humidity;BMP_temperature;BMP_pressure;BME280_temperature;BME280_humidity;BME280_pressure;Samples;Min_cycle;Max_cycle;Signal;HPM_P1;HPM_P2
2021/10/19 00:01:56;;;;;;;7.07;5.77;;;;;;;4.47;100.00;99702.97;5006384;28;20572;-60
2021/10/19 00:04:23;;;;;;;6.73;5.17;;;;;;;4.46;100.00;99695.28;5007607;28;20057;-61
2021/10/19 00:06:49;;;;;;;9.03;4.73;;;;;;;4.40;100.00;99692.63;5004302;28;20033;-60
2021/10/19 00:09:14;;;;;;;9.27;6.33;;;;;;;4.38;100.00;99697.66;5008482;28;20391;-61
2021/10/19 00:11:40;;;;;;;11.30;5.87;;;;;;;4.33;100.00;99701.78;5007033;28;20467;-62
2021/10/19 00:14:05;;;;;;;9.57;5.40;;;;;;;4.29;100.00;99710.16;5006296;28;20111;-61
2021/10/19 00:16:31;;;;;;;8.90;5.10;;;;;;;4.26;100.00;99709.22;5008175;28;20053;-61
2021/10/19 00:18:56;;;;;;;7.77;5.20;;;;;;;4.19;100.00;99710.78;5007288;28;20427;-61
2021/10/19 00:21:22;;;;;;;9.13;6.27;;;;;;;4.19;100.00;99705.69;5010485;28;20473;-62
2021/10/19 00:23:47;;;;;;;6.07;4.73;;;;;;;4.18;100.00;99710.72;5002702;28;20040;-61
2021/10/19 00:26:13;;;;;;;9.23;5.70;;;;;;;4.16;100.00;99710.69;5001857;28;20056;-61
2021/10/19 00:28:39;;;;;;;7.57;5.43;;;;;;;4.17;100.00;99709.88;5008435;28;20495;-61
2021/10/19 00:31:04;;;;;;;12.07;5.80;;;;;;;4.13;100.00;99711.47;5008174;28;20026;-61
2021/10/19 00:33:30;;;;;;;11.33;5.67;;;;;;;4.20;100.00;99719.25;5004286;28;20052;-61
2021/10/19 00:35:55;;;;;;;11.03;6.03;;;;;;;4.16;100.00;99712.38;5007195;28;20397;-61
2021/10/19 00:38:21;;;;;;;7.90;5.63;;;;;;;4.26;100.00;99712.63;5008723;28;20026;-61
2021/10/19 00:40:46;;;;;;;6.73;5.40;;;;;;;4.24;100.00;99713.41;5006245;28;20045;-62
2021/10/19 00:43:11;;;;;;;8.37;5.60;;;;;;;4.17;100.00;99709.88;5003613;28;20401;-61
2021/10/19 00:45:37;;;;;;;10.77;4.97;;;;;;;4.11;100.00;99697.91;5008085;28;20065;-59
2021/10/19 00:48:05;;;;;;;7.30;4.97;;;;;;;4.10;100.00;99698.72;5006787;28;20034;-59
2021/10/19 00:50:31;;;;;;;6.80;4.93;;;;;;;4.06;100.00;99698.63;5005784;28;20026;-60
2021/10/19 00:52:57;;;;;;;6.40;5.10;;;;;;;4.02;100.00;99694.28;5002942;28;20095;-60
2021/10/19 00:55:23;;;;;;;9.70;5.03;;;;;;;4.02;100.00;99694.28;5016894;28;20026;-59
2021/10/19 00:57:50;;;;;;;5.97;4.37;;;;;;;4.05;100.00;99692.69;5009975;28;20029;-59
2021/10/19 01:00:16;;;;;;;6.33;5.63;;;;;;;4.08;100.00;99699.50;5009756;28;20091;-60
2021/10/19 01:02:43;;;;;;;6.93;5.03;;;;;;;4.16;100.00;99698.00;5008329;28;20062;-62
2021/10/19 01:05:10;;;;;;;10.00;5.37;;;;;;;4.20;100.00;99693.88;5006747;28;20037;-62
2021/10/19 01:07:36;;;;;;;12.97;7.30;;;;;;;4.16;100.00;99690.38;5010366;28;20038;-60
2021/10/19 01:10:04;;;;;;;7.80;4.77;;;;;;;4.22;100.00;99700.69;5023148;28;20452;-61
2021/10/19 01:12:30;;;;;;;7.33;5.47;;;;;;;4.20;100.00;99688.78;5007715;28;20038;-62
2021/10/19 01:14:56;;;;;;;9.53;5.17;;;;;;;4.22;100.00;99682.06;5013953;28;20542;-62
2021/10/19 01:17:22;;;;;;;6.50;4.33;;;;;;;4.22;100.00;99680.38;5012037;28;20546;-62
2021/10/19 01:19:49;;;;;;;6.13;5.40;;;;;;;4.25;100.00;99670.28;5009542;28;20037;-62
2021/10/19 01:22:15;;;;;;;7.23;5.13;;;;;;;4.24;100.00;99673.69;5011665;28;20029;-61
2021/10/19 01:24:41;;;;;;;6.50;4.80;;;;;;;4.22;100.00;99671.91;5012619;28;20038;-62
2021/10/19 01:27:06;;;;;;;7.13;4.30;;;;;;;4.25;100.00;99669.44;5012977;28;20117;-62
2021/10/19 01:29:32;;;;;;;5.27;4.00;;;;;;;4.25;100.00;99659.28;5008239;28;20407;-61
2021/10/19 01:31:57;;;;;;;6.27;4.70;;;;;;;4.27;100.00;99667.81;5011297;28;20478;-61
2021/10/19 01:34:23;;;;;;;6.70;4.57;;;;;;;4.28;100.00;99660.22;5013936;28;20056;-61
2021/10/19 01:36:49;;;;;;;7.43;4.70;;;;;;;4.31;100.00;99659.44;5008664;28;20034;-62
2021/10/19 01:39:15;;;;;;;7.90;4.43;;;;;;;4.33;100.00;99662.88;5007325;28;20125;-62
2021/10/19 01:41:46;;;;;;;7.07;4.50;;;;;;;4.33;100.00;99668.78;5004557;28;20062;-62
2021/10/19 01:44:11;;;;;;;5.70;4.63;;;;;;;4.38;100.00;99659.59;5013357;28;20168;-62
2021/10/19 01:46:37;;;;;;;8.50;5.23;;;;;;;4.29;100.00;99654.31;5011249;28;20357;-60
2021/10/19 01:49:02;;;;;;;10.60;4.67;;;;;;;4.26;100.00;99653.38;5005655;28;20029;-62
2021/10/19 01:51:27;;;;;;;6.80;4.70;;;;;;;4.21;100.00;99653.28;5007570;28;20045;-62
2021/10/19 01:53:53;;;;;;;7.33;4.93;;;;;;;4.12;100.00;99653.06;5007010;28;20553;-62
2021/10/19 01:56:19;;;;;;;5.53;4.30;;;;;;;4.17;100.00;99655.72;5011581;28;20026;-62
2021/10/19 01:58:44;;;;;;;6.13;5.13;;;;;;;4.21;100.00;99658.34;5007274;28;20042;-61
2021/10/19 02:01:10;;;;;;;10.80;6.93;;;;;;;4.20;100.00;99656.63;5005641;28;20087;-62
2021/10/19 02:03:35;;;;;;;10.50;5.07;;;;;;;4.16;100.00;99652.31;5011062;28;20037;-62
2021/10/19 02:06:01;;;;;;;8.60;5.60;;;;;;;4.10;100.00;99639.50;5010053;28;20497;-62
2021/10/19 02:08:26;;;;;;;6.53;4.17;;;;;;;4.03;100.00;99640.19;5008239;28;20046;-60
2021/10/19 02:10:52;;;;;;;9.93;5.57;;;;;;;3.99;100.00;99644.31;5006353;28;20033;-61
2021/10/19 02:13:17;;;;;;;8.70;5.50;;;;;;;3.94;100.00;99635.75;5012515;28;20133;-60
2021/10/19 02:15:43;;;;;;;12.30;6.33;;;;;;;3.91;100.00;99628.06;5007442;28;20034;-61
2021/10/19 02:18:09;;;;;;;12.87;6.50;;;;;;;3.91;100.00;99629.75;5006315;28;20034;-62
2021/10/19 02:20:36;;;;;;;7.93;5.37;;;;;;;3.89;100.00;99628.84;5013863;28;20443;-61
2021/10/19 02:23:02;;;;;;;10.33;5.23;;;;;;;3.85;100.00;99624.53;5007038;28;20200;-62
2021/10/19 02:25:28;;;;;;;8.23;4.57;;;;;;;3.85;100.00;99622.88;5017158;28;20113;-62
2021/10/19 02:27:55;;;;;;;9.10;5.80;;;;;;;3.81;100.00;99633.75;5005745;28;20536;-60
2021/10/19 02:30:21;;;;;;;8.00;6.07;;;;;;;3.87;100.00;99625.41;5009122;28;20476;-60
2021/10/19 02:32:47;;;;;;;8.60;5.60;;;;;;;3.88;100.00;99642.34;5008949;28;20369;-60
2021/10/19 02:35:15;;;;;;;10.27;5.27;;;;;;;3.92;100.00;99636.53;5007236;28;20033;-61
2021/10/19 02:37:42;;;;;;;11.97;5.03;;;;;;;3.82;100.00;99639.69;5004204;28;20041;-60
2021/10/19 02:40:10;;;;;;;9.80;5.73;;;;;;;3.93;100.00;99635.72;5008664;28;20451;-60
2021/10/19 02:42:35;;;;;;;8.63;5.40;;;;;;;3.92;100.00;99624.72;5007732;28;20034;-60
2021/10/19 02:45:03;;;;;;;12.40;5.60;;;;;;;3.97;100.00;99634.97;5009628;28;20042;-62
2021/10/19 02:47:28;;;;;;;10.80;5.23;;;;;;;3.97;100.00;99624.81;5007013;28;20082;-61
2021/10/19 02:49:54;;;;;;;13.90;6.50;;;;;;;3.97;100.00;99638.38;5010032;28;20029;-62
2021/10/19 02:52:19;;;;;;;8.57;5.67;;;;;;;3.95;100.00;99637.47;5008358;28;20036;-61
2021/10/19 02:54:44;;;;;;;11.07;5.33;;;;;;;3.89;100.00;99623.78;5010338;28;20644;-62
2021/10/19 02:57:10;;;;;;;9.00;5.33;;;;;;;3.85;100.00;99620.31;5006131;28;20476;-62
2021/10/19 02:59:35;;;;;;;10.83;5.67;;;;;;;3.82;100.00;99612.63;5006440;28;20041;-62
2021/10/19 03:02:00;;;;;;;9.73;4.97;;;;;;;3.81;100.00;99610.94;5008414;28;20038;-61
2021/10/19 03:04:26;;;;;;;9.23;4.80;;;;;;;3.81;100.00;99608.41;5008689;28;20456;-62
2021/10/19 03:06:51;;;;;;;6.90;4.67;;;;;;;3.79;100.00;99614.22;5007768;28;20207;-62
2021/10/19 03:09:17;;;;;;;8.10;6.10;;;;;;;3.80;100.00;99610.88;5013046;28;20053;-61
2021/10/19 03:11:43;;;;;;;10.37;5.53;;;;;;;3.81;100.00;99615.16;5009182;28;20400;-62
2021/10/19 03:14:09;;;;;;;10.73;4.93;;;;;;;3.82;100.00;99606.72;5002624;28;20038;-62
2021/10/19 03:16:34;;;;;;;6.93;5.10;;;;;;;3.79;100.00;99607.50;5004015;28;20030;-62
2021/10/19 03:19:00;;;;;;;8.00;5.03;;;;;;;3.86;100.00;99600.91;5009385;28;20038;-61
2021/10/19 03:21:25;;;;;;;8.47;4.60;;;;;;;3.86;100.00;99596.66;5008470;28;20057;-62
2021/10/19 03:23:51;;;;;;;8.73;5.83;;;;;;;3.88;100.00;99597.56;5003033;28;20033;-62
2021/10/19 03:26:16;;;;;;;11.27;5.97;;;;;;;3.90;100.00;99605.22;5006274;28;20101;-62
2021/10/19 03:28:44;;;;;;;6.90;4.47;;;;;;;3.90;100.00;99601.00;5010916;28;20034;-62
2021/10/19 03:31:09;;;;;;;6.27;4.97;;;;;;;3.91;100.00;99596.75;5012554;28;20489;-62
2021/10/19 03:33:35;;;;;;;7.40;5.00;;;;;;;3.91;100.00;99604.38;5013993;28;20030;-64
2021/10/19 03:36:01;;;;;;;6.97;3.83;;;;;;;3.90;100.00;99601.00;5006703;28;20054;-61
2021/10/19 03:38:26;;;;;;;6.30;5.00;;;;;;;3.90;100.00;99605.22;5010118;28;20034;-61
2021/10/19 03:40:52;;;;;;;8.07;5.17;;;;;;;3.86;100.00;99604.25;5014494;28;20426;-61
2021/10/19 03:43:17;;;;;;;10.30;4.73;;;;;;;3.80;100.00;99598.22;5015238;28;20434;-61
2021/10/19 03:45:43;;;;;;;5.83;4.33;;;;;;;3.73;100.00;99598.91;5012476;28;20030;-62
2021/10/19 03:48:08;;;;;;;6.27;4.27;;;;;;;3.68;100.00;99602.19;5011151;28;20038;-60
2021/10/19 03:50:34;;;;;;;8.03;5.13;;;;;;;3.61;100.00;99597.75;5002777;28;20022;-60
2021/10/19 03:53:00;;;;;;;9.70;4.00;;;;;;;3.59;100.00;99607.03;5001787;28;20193;-61
2021/10/19 03:55:25;;;;;;;7.13;4.70;;;;;;;3.56;100.00;99613.69;5013036;28;20538;-61
2021/10/19 03:57:51;;;;;;;6.13;4.07;;;;;;;3.50;100.00;99609.31;5008305;28;20575;-63
2021/10/19 04:00:16;;;;;;;12.00;6.30;;;;;;;3.47;100.00;99609.25;5007014;28;20040;-62
2021/10/19 04:02:42;;;;;;;7.27;4.37;;;;;;;3.47;100.00;99614.34;5008537;28;20034;-61
2021/10/19 04:05:08;;;;;;;7.73;4.80;;;;;;;3.51;100.00;99616.13;5007662;28;20084;-62
2021/10/19 04:07:34;;;;;;;7.37;4.77;;;;;;;3.57;100.00;99615.41;5009049;28;20120;-61
2021/10/19 04:10:03;;;;;;;8.73;4.83;;;;;;;3.57;100.00;99615.41;5008930;28;20027;-60
2021/10/19 04:12:28;;;;;;;8.80;5.53;;;;;;;3.65;100.00;99611.38;5007640;28;20068;-60
2021/10/19 04:14:54;;;;;;;9.57;5.33;;;;;;;3.58;100.00;99601.91;5009740;28;20486;-59
2021/10/19 04:17:19;;;;;;;9.13;5.33;;;;;;;3.56;100.00;99601.88;5004341;28;20049;-61
2021/10/19 04:19:44;;;;;;;8.40;5.27;;;;;;;3.53;100.00;99598.41;5003271;28;20030;-60
2021/10/19 04:22:10;;;;;;;8.10;4.73;;;;;;;3.56;100.00;99603.56;5014285;28;20498;-61
2021/10/19 04:24:35;;;;;;;8.83;5.47;;;;;;;3.74;100.00;99606.50;5006228;28;20033;-60
2021/10/19 04:27:01;;;;;;;8.80;6.00;;;;;;;3.69;100.00;99624.16;5005454;28;20033;-60
2021/10/19 04:29:26;;;;;;;8.07;4.83;;;;;;;3.63;100.00;99615.56;5005073;28;20034;-60
2021/10/19 04:31:51;;;;;;;8.57;4.57;;;;;;;3.59;100.00;99626.44;5019037;28;20030;-60
2021/10/19 04:34:17;;;;;;;8.33;5.07;;;;;;;3.57;100.00;99618.78;5011440;28;20312;-62
2021/10/19 04:36:42;;;;;;;8.27;4.97;;;;;;;3.58;100.00;99615.44;5012715;28;20067;-61
2021/10/19 04:39:08;;;;;;;7.80;5.20;;;;;;;3.79;100.00;99629.44;5010627;28;20056;-61
2021/10/19 04:41:33;;;;;;;9.47;5.00;;;;;;;3.86;100.00;99619.47;5013203;28;20112;-61
2021/10/19 04:43:58;;;;;;;12.73;6.73;;;;;;;3.81;100.00;99617.69;5011066;28;20167;-62
2021/10/19 04:46:24;;;;;;;6.93;4.40;;;;;;;3.75;100.00;99626.00;5017334;28;20029;-60
2021/10/19 04:48:49;;;;;;;8.10;5.07;;;;;;;3.66;100.00;99634.22;5016394;28;20375;-62
2021/10/19 04:51:15;;;;;;;14.90;7.73;;;;;;;3.61;100.00;99632.41;5009737;28;20117;-62
2021/10/19 04:53:40;;;;;;;9.83;5.83;;;;;;;3.48;100.00;99613.50;5014732;28;20055;-62
2021/10/19 04:56:10;;;;;;;14.23;7.33;;;;;;;3.48;100.00;99627.88;5005845;28;20030;-60
2021/10/19 04:58:35;;;;;;;8.70;4.57;;;;;;;3.48;100.00;99628.69;5005219;28;20463;-62
2021/10/19 05:01:02;;;;;;;8.97;4.83;;;;;;;3.44;100.00;99631.13;5006172;28;20028;-62
2021/10/19 05:03:27;;;;;;;9.30;5.17;;;;;;;3.38;100.00;99630.97;5019195;28;20034;-61
2021/10/19 05:05:53;;;;;;;6.53;3.83;;;;;;;3.39;100.00;99627.63;5010674;28;20030;-59
2021/10/19 05:08:18;;;;;;;4.47;3.93;;;;;;;3.37;100.00;99629.25;5010806;28;20461;-64
2021/10/19 05:10:44;;;;;;;6.37;4.53;;;;;;;3.37;100.00;99634.31;5014830;28;20064;-59
2021/10/19 05:13:12;;;;;;;15.07;7.97;;;;;;;3.41;100.00;99634.44;5014892;28;20465;-59
2021/10/19 05:15:38;;;;;;;7.77;5.40;;;;;;;3.38;100.00;99625.91;5004414;28;20034;-60
2021/10/19 05:18:03;;;;;;;8.87;6.13;;;;;;;3.37;100.00;99619.13;5009952;28;20041;-60
2021/10/19 05:20:29;;;;;;;8.20;4.63;;;;;;;3.33;100.00;99618.19;5008770;28;20062;-60
2021/10/19 05:22:56;;;;;;;7.20;5.00;;;;;;;3.36;100.00;99620.78;5007120;28;20045;-60
2021/10/19 05:25:22;;;;;;;12.47;7.07;;;;;;;3.36;100.00;99622.47;5006062;28;20120;-58
2021/10/19 05:27:47;;;;;;;11.30;5.77;;;;;;;3.33;100.00;99627.47;5010348;28;20144;-60
2021/10/19 05:30:13;;;;;;;11.30;6.03;;;;;;;3.26;100.00;99618.00;5010023;28;20018;-60
2021/10/19 05:32:38;;;;;;;9.87;6.20;;;;;;;3.31;100.00;99632.47;5005601;28;20099;-60
2021/10/19 05:35:05;;;;;;;13.27;7.00;;;;;;;3.34;100.00;99642.72;5010070;28;20049;-59
2021/10/19 05:37:30;;;;;;;7.73;5.37;;;;;;;3.35;100.00;99631.78;5016018;28;20037;-60
2021/10/19 05:39:56;;;;;;;8.87;5.40;;;;;;;3.35;100.00;99633.44;5020118;28;20033;-60
2021/10/19 05:42:21;;;;;;;9.43;5.87;;;;;;;3.36;100.00;99633.47;5007586;28;20484;-61
2021/10/19 05:44:47;;;;;;;8.23;5.90;;;;;;;3.38;100.00;99625.91;5010730;28;20033;-60
2021/10/19 05:47:12;;;;;;;9.37;5.67;;;;;;;3.47;100.00;99628.69;5008490;28;20030;-60
2021/10/19 05:49:38;;;;;;;8.03;5.67;;;;;;;3.59;100.00;99632.38;5011624;28;20494;-60
2021/10/19 05:52:04;;;;;;;15.83;7.50;;;;;;;3.72;100.00;99636.06;5009134;28;20029;-60
2021/10/19 05:54:29;;;;;;;12.83;7.20;;;;;;;3.82;100.00;99643.06;5007521;28;20053;-61
2021/10/19 05:56:55;;;;;;;11.97;8.17;;;;;;;4.03;100.00;99641.03;5007984;28;20033;-59
2021/10/19 05:59:21;;;;;;;17.20;10.20;;;;;;;4.21;100.00;99645.66;5004448;28;20033;-61
2021/10/19 06:01:48;;;;;;;16.30;9.00;;;;;;;4.35;100.00;99646.84;5009450;28;20048;-61
2021/10/19 06:04:13;;;;;;;12.30;7.83;;;;;;;4.47;100.00;99653.84;5006144;28;20603;-61
2021/10/19 06:06:39;;;;;;;15.33;7.57;;;;;;;4.67;100.00;99651.75;5015704;28;20100;-59
2021/10/19 06:09:05;;;;;;;14.17;8.83;;;;;;;4.83;100.00;99653.78;5016291;28;20033;-61
2021/10/19 06:11:30;;;;;;;17.80;9.83;;;;;;;4.99;100.00;99653.25;5002304;28;20034;-60
2021/10/19 06:13:56;;;;;;;11.00;7.60;;;;;;;5.19;100.00;99653.63;5006683;28;20456;-60
2021/10/19 06:16:21;;;;;;;10.17;5.97;;;;;;;5.34;100.00;99652.25;5008663;28;20037;-60
2021/10/19 06:18:47;;;;;;;6.30;4.93;;;;;;;5.51;100.00;99647.47;5008141;28;20025;-60
2021/10/19 06:21:13;;;;;;;7.13;5.10;;;;;;;5.68;100.00;99657.91;5006226;28;20034;-59
2021/10/19 06:23:38;;;;;;;9.80;6.17;;;;;;;5.82;100.00;99656.44;5007721;28;20036;-61
2021/10/19 06:26:04;;;;;;;8.90;5.30;;;;;;;5.85;100.00;99652.28;5009774;28;20037;-60
2021/10/19 06:28:29;;;;;;;6.47;5.43;;;;;;;5.91;100.00;99666.81;5009876;28;20400;-59
2021/10/19 06:30:55;;;;;;;8.87;4.90;;;;;;;5.82;100.00;99667.47;5002914;28;20108;-60
2021/10/19 06:33:20;;;;;;;9.70;5.70;;;;;;;5.87;100.00;99667.59;5008650;28;20057;-62
2021/10/19 06:35:45;;;;;;;7.80;5.73;;;;;;;5.96;100.00;99666.06;5007726;28;20029;-60
2021/10/19 06:38:11;;;;;;;7.53;5.00;;;;;;;5.99;100.00;99657.59;5007740;28;20037;-60
2021/10/19 06:40:36;;;;;;;7.13;4.93;;;;;;;6.13;100.00;99656.13;5003288;28;20049;-61
2021/10/19 06:43:03;;;;;;;7.70;5.67;;;;;;;6.28;100.00;99658.06;5005883;28;20033;-61
2021/10/19 06:45:28;;;;;;;6.40;4.47;;;;;;;6.44;100.00;99654.88;5019073;28;20094;-60
2021/10/19 06:47:54;;;;;;;8.03;4.33;;;;;;;6.54;100.00;99660.94;5008739;28;20033;-60
2021/10/19 06:50:19;;;;;;;6.13;4.23;;;;;;;6.69;100.00;99654.38;5006189;28;20744;-60
2021/10/19 06:52:45;;;;;;;6.73;4.70;;;;;;;6.82;100.00;99663.91;5006933;28;20024;-59
2021/10/19 06:55:10;;;;;;;7.17;4.20;;;;;;;7.00;100.00;99667.50;5008364;28;20068;-60
2021/10/19 06:57:42;;;;;;;6.50;3.60;;;;;;;7.30;100.00;99673.78;5003040;28;20030;-60
2021/10/19 07:00:12;;;;;;;7.27;4.63;;;;;;;7.37;100.00;99672.16;5005382;28;20042;-59
2021/10/19 07:02:38;;;;;;;5.07;4.53;;;;;;;7.45;100.00;99674.78;5008215;28;20040;-59
2021/10/19 07:05:04;;;;;;;7.47;4.57;;;;;;;7.52;100.00;99676.56;5008477;28;20037;-59
2021/10/19 07:07:30;;;;;;;5.67;4.60;;;;;;;7.40;100.00;99661.13;5005178;28;20806;-58
2021/10/19 07:09:55;;;;;;;8.73;4.60;;;;;;;7.65;100.00;99655.41;5003699;28;20022;-61
2021/10/19 07:12:21;;;;;;;6.17;4.37;;;;;;;7.73;100.00;99669.09;5005088;28;20026;-61
2021/10/19 07:14:48;;;;;;;4.97;4.13;;;;;;;7.93;100.00;99662.50;5005622;28;21142;-62
2021/10/19 07:17:14;;;;;;;7.17;4.80;;;;;;;8.12;100.00;99664.34;5004599;28;20036;-62
2021/10/19 07:19:40;;;;;;;9.07;4.93;;;;;;;8.13;100.00;99663.50;5003701;28;20406;-61
2021/10/19 07:22:06;;;;;;;5.37;4.43;;;;;;;8.19;100.00;99653.31;5007683;28;20549;-61
2021/10/19 07:24:31;;;;;;;8.00;4.33;;;;;;;8.33;100.00;99658.53;5006846;28;20018;-64
2021/10/19 07:26:57;;;;;;;11.20;5.10;;;;;;;8.48;100.00;99657.81;5006152;28;20049;-59
2021/10/19 07:29:22;;;;;;;7.17;4.93;;;;;;;8.64;100.00;99659.59;5004593;28;20025;-63
2021/10/19 07:31:48;;;;;;;9.53;5.53;;;;;;;8.77;100.00;99661.34;5008263;28;20346;-63
2021/10/19 07:34:13;;;;;;;13.03;8.00;;;;;;;8.94;100.00;99659.72;5007743;28;20023;-58
2021/10/19 07:36:39;;;;;;;10.90;8.07;;;;;;;9.09;100.00;99666.59;5005154;28;20033;-57
2021/10/19 07:39:06;;;;;;;6.97;5.80;;;;;;;9.22;100.00;99664.94;5007778;28;20483;-56
2021/10/19 07:41:31;;;;;;;7.87;6.70;;;;;;;9.24;100.00;99660.69;5008067;28;20116;-59
2021/10/19 07:43:57;;;;;;;10.43;6.70;;;;;;;9.07;100.00;99664.06;5008342;28;20057;-65
2021/10/19 07:46:22;;;;;;;10.20;7.17;;;;;;;9.29;100.00;99664.13;5004091;28;20460;-64
2021/10/19 07:48:47;;;;;;;6.87;6.17;;;;;;;9.45;100.00;99664.16;5003766;28;20018;-64
2021/10/19 07:51:13;;;;;;;10.20;6.27;;;;;;;9.61;100.00;99665.03;5007355;28;20116;-64
2021/10/19 07:53:38;;;;;;;8.00;6.43;;;;;;;9.71;100.00;99669.31;5008671;28;20041;-65
2021/10/19 07:56:04;;;;;;;8.93;6.80;;;;;;;9.82;100.00;99649.69;5003022;28;20458;-64
2021/10/19 07:58:29;;;;;;;10.13;7.68;;;;;;;10.02;100.00;99653.09;5004992;28;20034;-64
2021/10/19 08:00:55;;;;;;;11.47;6.47;;;;;;;10.06;100.00;99647.09;5006354;28;20089;-64
2021/10/19 08:03:20;;;;;;;10.43;9.00;;;;;;;10.28;100.00;99652.25;5004360;28;20129;-64
2021/10/19 08:05:46;;;;;;;9.90;6.47;;;;;;;10.35;100.00;99656.53;5005552;28;20037;-64
2021/10/19 08:08:14;;;;;;;16.23;7.50;;;;;;;10.48;100.00;99661.59;5004394;28;20071;-63
2021/10/19 08:10:42;;;;;;;11.55;6.90;;;;;;;10.36;100.00;99647.94;5006313;28;20104;-63
2021/10/19 08:13:11;;;;;;;11.43;7.28;;;;;;;10.26;100.00;99646.28;5004195;28;20034;-63
2021/10/19 08:15:38;;;;;;;8.77;7.00;;;;;;;10.30;100.00;99659.09;5004635;28;20152;-63
2021/10/19 08:18:05;;;;;;;9.43;6.57;;;;;;;10.21;100.00;99664.22;5006594;28;20029;-63
2021/10/19 08:20:31;;;;;;;18.30;7.72;;;;;;;9.92;100.00;99664.22;5003196;28;20079;-63
2021/10/19 08:22:57;;;;;;;16.20;6.65;;;;;;;9.83;100.00;99666.75;5003644;28;20061;-59
2021/10/19 08:25:23;;;;;;;8.68;7.07;;;;;;;9.88;100.00;99662.50;5007040;28;20030;-61
2021/10/19 08:27:49;;;;;;;14.75;8.73;;;;;;;9.82;100.00;99649.69;5009949;28;20436;-59
2021/10/19 08:30:17;;;;;;;10.77;7.28;;;;;;;9.98;100.00;99651.38;5008958;28;20041;-60
2021/10/19 08:32:43;;;;;;;12.07;8.75;;;;;;;10.03;100.00;99642.00;5002181;28;20041;-61
2021/10/19 08:35:09;;;;;;;11.15;8.00;;;;;;;10.31;100.00;99650.53;5006049;28;20022;-61
2021/10/19 08:37:35;;;;;;;13.65;7.60;;;;;;;10.66;100.00;99647.03;5009153;28;20044;-59
2021/10/19 08:40:02;;;;;;;8.57;7.05;;;;;;;10.93;100.00;99655.50;5005481;28;20056;-60
2021/10/19 08:42:28;;;;;;;12.48;7.90;;;;;;;11.07;100.00;99657.16;5003590;28;20022;-59
2021/10/19 08:44:54;;;;;;;13.05;7.07;;;;;;;11.20;100.00;99666.50;5006761;28;20104;-61
2021/10/19 08:47:20;;;;;;;12.00;7.75;;;;;;;11.01;100.00;99665.72;5009055;28;20113;-60
2021/10/19 08:49:46;;;;;;;8.05;6.72;;;;;;;11.33;100.00;99668.97;5007357;28;20037;-61
2021/10/19 08:52:11;;;;;;;12.82;8.02;;;;;;;11.61;100.00;99671.38;5005660;28;20026;-60
2021/10/19 08:54:37;;;;;;;13.98;8.55;;;;;;;11.56;100.00;99676.56;5000494;28;20188;-59
2021/10/19 08:57:13;;;;;;;13.65;8.15;;;;;;;11.80;100.00;99661.00;5005578;28;20033;-60
2021/10/19 08:59:43;;;;;;;10.65;7.70;;;;;;;11.79;100.00;99643.91;5005790;28;20593;-59
2021/10/19 09:02:09;;;;;;;11.65;7.72;;;;;;;11.81;100.00;99652.44;5008072;28;20462;-60
2021/10/19 09:04:34;;;;;;;12.35;7.57;;;;;;;11.93;100.00;99653.19;5006126;28;20124;-61
2021/10/19 09:06:59;;;;;;;10.13;7.95;;;;;;;12.10;100.00;99664.19;5006004;28;20022;-59
2021/10/19 09:09:26;;;;;;;12.10;8.27;;;;;;;12.24;100.00;99672.63;5003482;28;20034;-63
2021/10/19 09:11:54;;;;;;;11.68;8.93;;;;;;;12.33;100.00;99657.13;4999828;28;20034;-61
2021/10/19 09:14:21;;;;;;;13.68;8.88;;;;;;;12.45;100.00;99646.72;5001510;28;20133;-60
2021/10/19 09:16:49;;;;;;;13.40;10.00;;;;;;;12.41;100.00;99631.34;5011124;28;20164;-61
2021/10/19 09:19:19;;;;;;;15.20;8.93;;;;;;;12.56;100.00;99644.88;5018249;28;20132;-60
2021/10/19 09:21:54;;;;;;;14.63;8.90;;;;;;;12.61;100.00;99655.13;5013696;28;20232;-62
2021/10/19 09:24:27;;;;;;;14.73;8.40;;;;;;;12.71;98.98;99660.16;5011585;28;20034;-61
2021/10/19 09:26:59;;;;;;;11.00;8.00;;;;;;;12.82;98.47;99666.03;5008837;28;20084;-62
2021/10/19 09:29:26;;;;;;;11.05;7.57;;;;;;;12.96;96.29;99665.00;5005937;28;20609;-60
2021/10/19 09:31:54;;;;;;;16.33;10.05;;;;;;;12.94;94.74;99666.78;5007103;28;20037;-61
2021/10/19 09:34:20;;;;;;;12.25;8.60;;;;;;;13.04;92.85;99666.63;5011593;28;20464;-59
2021/10/19 09:36:48;;;;;;;14.70;9.45;;;;;;;13.18;92.40;99666.50;5012480;28;20034;-60
2021/10/19 09:39:14;;;;;;;11.00;9.13;;;;;;;13.16;93.13;99663.06;5004673;28;20030;-60
2021/10/19 09:41:46;;;;;;;17.80;8.80;;;;;;;13.22;92.74;99663.88;5007583;28;20395;-60
2021/10/19 09:44:13;;;;;;;13.07;8.63;;;;;;;13.24;91.50;99654.38;5009456;28;20060;-60
2021/10/19 09:46:40;;;;;;;12.30;8.68;;;;;;;13.38;91.10;99659.34;5017430;28;20407;-56
2021/10/19 09:49:08;;;;;;;16.55;8.52;;;;;;;12.80;92.40;99661.78;5013271;28;20487;-60
2021/10/19 09:51:39;;;;;;;13.88;8.75;;;;;;;13.00;93.46;99662.38;5003551;28;20030;-58
2021/10/19 09:54:08;;;;;;;12.40;8.07;;;;;;;13.30;91.55;99660.31;5010855;28;20062;-59
2021/10/19 09:56:39;;;;;;;13.48;8.85;;;;;;;13.47;89.38;99658.38;5011138;28;20034;-58
2021/10/19 09:59:05;;;;;;;11.10;7.88;;;;;;;13.72;88.27;99649.41;5015515;28;20034;-60
2021/10/19 10:01:33;;;;;;;9.90;7.15;;;;;;;14.00;86.08;99655.00;5014780;28;20027;-60
2021/10/19 10:04:00;;;;;;;15.68;8.13;;;;;;;13.88;85.21;99648.28;5012087;28;20384;-58
2021/10/19 10:06:26;;;;;;;11.60;6.95;;;;;;;14.05;85.71;99642.84;5008284;28;20119;-59
2021/10/19 10:08:52;;;;;;;10.70;7.00;;;;;;;14.14;83.35;99643.56;5004522;28;20641;-59
2021/10/19 10:11:20;;;;;;;12.77;7.50;;;;;;;14.30;84.87;99643.31;5009055;28;20072;-59
2021/10/19 10:14:05;;;;;;;11.15;6.88;;;;;;;14.39;85.81;99643.13;5009802;28;20041;-60
2021/10/19 10:16:42;;;;;;;12.80;7.75;;;;;;;14.40;86.29;99645.69;5007228;28;20311;-60
2021/10/19 10:19:15;;;;;;;10.18;7.30;;;;;;;14.45;87.09;99640.47;5005852;28;20047;-60
2021/10/19 10:21:52;;;;;;;11.50;7.43;;;;;;;14.31;86.23;99643.25;5011712;28;20060;-59
2021/10/19 10:24:32;;;;;;;12.70;7.60;;;;;;;14.28;87.08;99639.88;5007153;28;20387;-59
2021/10/19 10:27:03;;;;;;;14.10;7.55;;;;;;;13.97;89.44;99647.28;5006283;28;20040;-60
2021/10/19 10:29:38;;;;;;;10.93;7.47;;;;;;;14.01;89.52;99643.78;5010859;28;20368;-60
2021/10/19 10:32:04;;;;;;;15.03;7.60;;;;;;;14.00;89.69;99642.91;5010505;28;20038;-60
2021/10/19 10:34:30;;;;;;;14.63;7.63;;;;;;;14.01;90.09;99644.63;5012064;28;20041;-60
2021/10/19 10:37:11;;;;;;;13.35;7.00;;;;;;;13.92;90.64;99631.88;5011651;28;20033;-59
2021/10/19 10:39:46;;;;;;;11.73;7.05;;;;;;;13.88;90.89;99634.53;5012544;28;20128;-60
2021/10/19 10:42:12;;;;;;;;;;;;;;;13.84;90.15;99638.03;5012537;28;20513;-59
2021/10/19 10:44:41;;;;;;;15.00;6.85;;;;;;;13.67;91.53;99636.59;5006597;28;19925;-59
2021/10/19 10:47:08;;;;;;;10.88;7.28;;;;;;;13.62;92.02;99632.41;5009054;28;20038;-59
2021/10/19 10:49:34;;;;;;;17.88;7.50;;;;;;;13.66;90.73;99629.72;5012426;28;20647;-59
2021/10/19 10:52:01;;;;;;;14.65;7.90;;;;;;;13.69;91.39;99627.13;5016465;28;20556;-61
2021/10/19 10:54:27;;;;;;;10.27;7.00;;;;;;;13.67;90.84;99615.97;5010934;28;20550;-61
2021/10/19 10:56:54;;;;;;;12.82;7.07;;;;;;;13.85;89.61;99609.66;5003932;28;20121;-59
2021/10/19 10:59:28;;;;;;;10.15;7.70;;;;;;;13.95;89.25;99611.22;5008490;28;20028;-60
2021/10/19 11:02:06;;;;;;;9.07;7.13;;;;;;;14.06;90.10;99613.59;5011843;28;20033;-58
2021/10/19 11:04:31;;;;;;;7.10;6.38;;;;;;;14.01;90.48;99618.00;5009510;28;20029;-60
2021/10/19 11:06:57;;;;;;;11.18;7.38;;;;;;;14.03;90.15;99609.38;5015709;28;20030;-59
2021/10/19 11:09:27;;;;;;;11.27;7.25;;;;;;;13.94;89.52;99609.53;5010467;28;20900;-59
2021/10/19 11:11:57;;;;;;;9.98;6.50;;;;;;;14.02;90.78;99599.94;5006647;28;20411;-61
2021/10/19 11:14:24;;;;;;;15.52;6.55;;;;;;;14.18;88.67;99592.75;5006816;28;20033;-61
2021/10/19 11:16:58;;;;;;;12.75;7.97;;;;;;;14.25;87.78;99598.69;5006489;28;20036;-62
2021/10/19 11:19:28;;;;;;;10.38;6.97;;;;;;;14.00;89.38;99601.66;5008548;28;20056;-61
2021/10/19 11:22:05;;;;;;;8.85;6.50;;;;;;;14.00;90.79;99595.69;5007296;28;20038;-62
2021/10/19 11:24:33;;;;;;;13.63;6.97;;;;;;;14.18;89.69;99590.19;5004501;28;20396;-61
2021/10/19 11:27:02;;;;;;;15.15;9.63;;;;;;;14.07;89.92;99586.94;5008934;28;20096;-61